Time;durP1;ratioP1;P1;durP2;ratioP2;P2;SDS_P1;SDS_P2;PMS_P1;PMS_P2;Temp;Humidity;BMP_temperature;BMP_pressure;BME280_temperature;BME280_humidity;BME280_pressure;Samples;Min_cycle;Max_cycle;Signal;HPM_P1;HPM_P2
2021/06/29 00:02:23;;;;;;;;;;;17.20;99.90;;;;;;5125405;27;19920;-87
2021/06/29 00:04:49;;;;;;;;;;;17.20;99.90;;;;;;5093532;28;20363;-87
2021/06/29 00:07:15;;;;;;;;;;;17.20;99.90;;;;;;5093994;28;19928;-87
2021/06/29 00:09:41;;;;;;;;;;;17.20;99.90;;;;;;5110472;28;20426;-87
2021/06/29 00:12:07;;;;;;;;;;;17.20;99.90;;;;;;5110415;28;19927;-87
2021/06/29 00:14:33;;;;;;;;;;;17.20;99.90;;;;;;5093452;28;19915;-87
2021/06/29 00:16:58;;;;;;;;;;;17.10;99.90;;;;;;5093766;28;20008;-87
2021/06/29 00:19:24;;;;;;;;;;;17.10;99.90;;;;;;5106089;28;19926;-87
2021/06/29 00:21:50;;;;;;;;;;;17.10;99.90;;;;;;5093839;28;19922;-87
2021/06/29 00:24:16;;;;;;;;;;;17.10;99.90;;;;;;5110557;28;19920;-87
2021/06/29 00:26:42;;;;;;;;;;;17.20;99.90;;;;;;5110281;28;20375;-87
2021/06/29 00:29:07;;;;;;;;;;;17.20;99.90;;;;;;5111682;28;19916;-87
2021/06/29 00:31:33;;;;;;;;;;;17.10;99.90;;;;;;5126836;28;19923;-87
2021/06/29 00:33:59;;;;;;;;;;;17.20;99.90;;;;;;5111452;28;19937;-87
2021/06/29 00:36:25;;;;;;;;;;;17.10;99.90;;;;;;5110411;28;19916;-87
2021/06/29 00:38:51;;;;;;;;;;;17.10;99.90;;;;;;5093677;28;19923;-87
2021/06/29 00:41:17;;;;;;;;;;;17.20;99.90;;;;;;5109952;28;20143;-87
2021/06/29 00:43:50;;;;;;;;;;;17.10;99.90;;;;;;5110687;28;19919;-88
2021/06/29 00:46:16;;;;;;;;;;;17.00;99.90;;;;;;5110102;28;19919;-87
2021/06/29 00:48:42;;;;;;;;;;;17.00;99.90;;;;;;5111704;28;20291;-87
2021/06/29 00:51:11;;;;;;;;;;;16.90;99.90;;;;;;5112325;28;20519;-87
2021/06/29 00:53:37;;;;;;;;;;;17.00;99.90;;;;;;5093810;28;20022;-87
2021/06/29 00:56:05;;;;;;;;;;;16.90;99.90;;;;;;5110387;28;20010;-88
2021/06/29 00:58:30;;;;;;;;;;;17.00;99.90;;;;;;5111584;28;19920;-88
2021/06/29 01:00:56;;;;;;;;;;;16.90;99.90;;;;;;5110188;28;20006;-87
2021/06/29 01:03:22;;;;;;;;;;;16.90;99.90;;;;;;5110297;28;20722;-87
2021/06/29 01:05:48;;;;;;;;;;;16.80;99.90;;;;;;5088594;28;19916;-87
2021/06/29 01:08:13;;;;;;;;;;;16.80;99.90;;;;;;5110456;28;19976;-87
2021/06/29 01:10:39;;;;;;;;;;;16.80;99.90;;;;;;5113059;28;19968;-87
2021/06/29 01:13:05;;;;;;;;;;;16.90;99.90;;;;;;5097293;28;19920;-88
2021/06/29 01:15:30;;;;;;;;;;;16.80;99.90;;;;;;5113514;28;19916;-87
2021/06/29 01:17:57;;;;;;;;;;;16.90;99.90;;;;;;5113989;28;19920;-87
2021/06/29 01:20:34;;;;;;;;;;;16.80;99.90;;;;;;5118972;27;20061;-87
2021/06/29 01:23:08;;;;;;;;;;;16.80;99.90;;;;;;5099241;28;19926;-88
2021/06/29 01:25:34;;;;;;;;;;;16.80;99.90;;;;;;5112587;28;19924;-88
2021/06/29 01:28:13;;;;;;;;;;;16.80;99.90;;;;;;5097086;28;19912;-87
2021/06/29 01:33:24;;;;;;;;;;;16.90;99.90;;;;;;5114078;28;19972;-87
2021/06/29 01:35:51;;;;;;;;;;;16.80;99.90;;;;;;5112893;28;20798;-88
2021/06/29 01:38:21;;;;;;;;;;;16.80;99.90;;;;;;5119754;27;19915;-87
2021/06/29 01:40:48;;;;;;;;;;;16.80;99.90;;;;;;5112435;28;20276;-87
2021/06/29 01:43:16;;;;;;;;;;;16.80;99.90;;;;;;5113868;28;19919;-88
2021/06/29 01:45:44;;;;;;;;;;;16.70;99.90;;;;;;5112724;28;19911;-87
2021/06/29 01:48:18;;;;;;;;;;;16.70;99.90;;;;;;5113478;28;19915;-87
2021/06/29 01:50:43;;;;;;;;;;;16.70;99.90;;;;;;5112994;28;19919;-87
2021/06/29 01:53:09;;;;;;;;;;;16.70;99.90;;;;;;5096952;28;19926;-87
2021/06/29 01:55:35;;;;;;;;;;;16.70;99.90;;;;;;5095827;28;19937;-87
2021/06/29 01:58:02;;;;;;;;;;;16.70;99.90;;;;;;5112907;28;19923;-88
2021/06/29 02:00:28;;;;;;;;;;;16.70;99.90;;;;;;5130394;27;19964;-88
2021/06/29 02:02:54;;;;;;;;;;;16.70;99.90;;;;;;5111673;27;19920;-87
2021/06/29 02:05:20;;;;;;;;;;;16.70;99.90;;;;;;5093468;28;19998;-87
2021/06/29 02:07:46;;;;;;;;;;;16.70;99.90;;;;;;5109186;28;19924;-87
2021/06/29 02:10:12;;;;;;;;;;;16.60;99.90;;;;;;5113242;28;19915;-88
2021/06/29 02:12:38;;;;;;;;;;;16.60;99.90;;;;;;5113899;28;19934;-88
2021/06/29 02:15:04;;;;;;;;;;;16.70;99.90;;;;;;5096155;28;19916;-88
2021/06/29 02:17:30;;;;;;;;;;;16.70;99.90;;;;;;5112327;28;19998;-87
2021/06/29 02:19:56;;;;;;;;;;;16.70;99.90;;;;;;5095193;28;20042;-87
2021/06/29 02:22:21;;;;;;;;;;;16.80;99.90;;;;;;5129291;27;19921;-87
2021/06/29 02:24:47;;;;;;;;;;;16.70;99.90;;;;;;5095846;28;19911;-87
2021/06/29 02:27:13;;;;;;;;;;;16.70;99.90;;;;;;5086705;28;19975;-86
2021/06/29 02:29:38;;;;;;;;;;;16.70;99.90;;;;;;5112534;28;19919;-88
2021/06/29 02:32:04;;;;;;;;;;;16.70;99.90;;;;;;5095053;28;19920;-86
2021/06/29 02:34:30;;;;;;;;;;;16.70;99.90;;;;;;5096111;28;20291;-88
2021/06/29 02:36:56;;;;;;;;;;;16.80;99.90;;;;;;5112449;28;19919;-87
2021/06/29 02:39:21;;;;;;;;;;;16.80;99.90;;;;;;5112387;28;19915;-87
2021/06/29 02:41:47;;;;;;;;;;;16.80;99.90;;;;;;5094697;28;19925;-86
2021/06/29 02:44:14;;;;;;;;;;;16.80;99.90;;;;;;5095917;28;19919;-87
2021/06/29 02:46:40;;;;;;;;;;;16.80;99.90;;;;;;5111697;28;19919;-86
2021/06/29 02:49:05;;;;;;;;;;;16.70;99.90;;;;;;5112410;28;20035;-88
2021/06/29 02:51:31;;;;;;;;;;;16.70;99.90;;;;;;5095172;28;19924;-87
2021/06/29 02:53:57;;;;;;;;;;;16.70;99.90;;;;;;5095595;28;19958;-87
2021/06/29 02:56:39;;;;;;;;;;;16.70;99.90;;;;;;5111806;28;19922;-87
2021/06/29 02:59:15;;;;;;;;;;;16.80;99.90;;;;;;5094263;28;19965;-88
2021/06/29 03:01:41;;;;;;;;;;;16.80;99.90;;;;;;5092909;28;19927;-87
2021/06/29 03:04:07;;;;;;;;;;;16.90;99.90;;;;;;5111899;28;20466;-88
2021/06/29 03:06:33;;;;;;;;;;;16.90;99.90;;;;;;5112100;28;20030;-88
2021/06/29 03:09:00;;;;;;;;;;;16.90;99.90;;;;;;5111917;28;19965;-88
2021/06/29 03:11:26;;;;;;;;;;;16.90;99.90;;;;;;5111970;28;19926;-88
2021/06/29 03:13:52;;;;;;;;;;;16.90;99.90;;;;;;5111703;28;19916;-86
2021/06/29 03:16:17;;;;;;;;;;;16.90;99.90;;;;;;5112089;28;19939;-88
2021/06/29 03:18:43;;;;;;;;;;;16.90;99.90;;;;;;5111543;28;19919;-88
2021/06/29 03:21:10;;;;;;;;;;;16.90;99.90;;;;;;5113212;28;19915;-88
2021/06/29 03:23:36;;;;;;;;;;;16.90;99.90;;;;;;5094706;28;19981;-88
2021/06/29 03:26:02;;;;;;;;;;;16.90;99.90;;;;;;5111824;28;19919;-87
2021/06/29 03:28:28;;;;;;;;;;;16.90;99.90;;;;;;5094897;28;20347;-88
2021/06/29 03:30:54;;;;;;;;;;;16.90;99.90;;;;;;5111302;28;19958;-88
2021/06/29 03:33:19;;;;;;;;;;;17.00;99.90;;;;;;5111478;28;20290;-88
2021/06/29 03:35:45;;;;;;;;;;;16.90;99.90;;;;;;5094302;28;19928;-87
2021/06/29 03:38:11;;;;;;;;;;;16.90;99.90;;;;;;5111509;28;19930;-87
2021/06/29 03:40:37;;;;;;;;;;;16.90;99.90;;;;;;5128339;27;19934;-87
2021/06/29 03:43:03;;;;;;;;;;;16.90;99.90;;;;;;5127481;27;20280;-88
2021/06/29 03:45:29;;;;;;;;;;;16.90;99.90;;;;;;5094685;28;19964;-88
2021/06/29 03:47:55;;;;;;;;;;;16.90;99.90;;;;;;5094698;28;19973;-88
2021/06/29 03:50:21;;;;;;;;;;;16.90;99.90;;;;;;5111795;28;19919;-87
2021/06/29 03:52:46;;;;;;;;;;;16.90;99.90;;;;;;5089393;28;19946;-88
2021/06/29 03:55:12;;;;;;;;;;;16.90;99.90;;;;;;5094555;28;20010;-88
2021/06/29 03:57:38;;;;;;;;;;;16.90;99.90;;;;;;5112431;28;19922;-88
2021/06/29 04:00:05;;;;;;;;;;;16.80;99.90;;;;;;5111019;28;20434;-87
2021/06/29 04:02:31;;;;;;;;;;;16.90;99.90;;;;;;5111080;28;19919;-88
2021/06/29 04:04:57;;;;;;;;;;;16.90;99.90;;;;;;5094182;28;20351;-88
2021/06/29 04:07:24;;;;;;;;;;;16.90;99.90;;;;;;5094418;28;19916;-88
2021/06/29 04:09:50;;;;;;;;;;;16.90;99.90;;;;;;5110749;28;19926;-87
2021/06/29 04:12:16;;;;;;;;;;;16.90;99.90;;;;;;5110769;28;19919;-86
2021/06/29 04:14:42;;;;;;;;;;;16.90;99.90;;;;;;5090766;28;20294;-88
2021/06/29 04:17:08;;;;;;;;;;;17.00;99.90;;;;;;5091671;28;19927;-87
2021/06/29 04:19:34;;;;;;;;;;;17.00;99.90;;;;;;5094117;28;20245;-87
2021/06/29 04:22:00;;;;;;;;;;;17.10;99.90;;;;;;5127954;28;19916;-87
2021/06/29 04:24:25;;;;;;;;;;;17.10;99.90;;;;;;5110960;28;19926;-88
2021/06/29 04:26:51;;;;;;;;;;;17.10;99.90;;;;;;5094182;28;19958;-88
2021/06/29 04:29:17;;;;;;;;;;;17.10;99.90;;;;;;5110468;28;20371;-87
2021/06/29 04:31:43;;;;;;;;;;;17.20;99.90;;;;;;5110152;28;19926;-88
2021/06/29 04:34:08;;;;;;;;;;;17.20;99.90;;;;;;5111656;28;20375;-87
2021/06/29 04:36:34;;;;;;;;;;;17.20;99.90;;;;;;5076878;28;19941;-88
2021/06/29 04:39:00;;;;;;;;;;;17.20;99.90;;;;;;5110374;28;19919;-87
2021/06/29 04:41:26;;;;;;;;;;;17.20;99.90;;;;;;5109689;28;19920;-88
2021/06/29 04:43:53;;;;;;;;;;;17.20;99.90;;;;;;5089897;28;19919;-86
2021/06/29 04:46:19;;;;;;;;;;;17.20;99.90;;;;;;5097775;28;20397;-88
2021/06/29 04:48:46;;;;;;;;;;;17.10;99.90;;;;;;5114659;28;20007;-88
2021/06/29 04:51:11;;;;;;;;;;;17.20;99.90;;;;;;5114548;28;19926;-88
2021/06/29 04:53:37;;;;;;;;;;;17.20;99.90;;;;;;5115989;28;19923;-88
2021/06/29 04:56:03;;;;;;;;;;;17.20;99.90;;;;;;5115550;28;19922;-88
2021/06/29 04:58:29;;;;;;;;;;;17.20;99.90;;;;;;5097777;28;19995;-88
2021/06/29 05:00:56;;;;;;;;;;;17.20;99.90;;;;;;5096450;28;20405;-88
2021/06/29 05:03:22;;;;;;;;;;;17.20;99.90;;;;;;5093966;28;19916;-88
2021/06/29 05:05:48;;;;;;;;;;;17.20;99.90;;;;;;5093686;28;19975;-88
2021/06/29 05:08:13;;;;;;;;;;;17.20;99.90;;;;;;5077468;28;19918;-88
2021/06/29 05:10:39;;;;;;;;;;;17.20;99.90;;;;;;5097170;28;20051;-88
2021/06/29 05:13:05;;;;;;;;;;;17.20;99.90;;;;;;5113772;28;19920;-88
2021/06/29 05:15:31;;;;;;;;;;;17.20;99.90;;;;;;5119145;27;20438;-87
2021/06/29 05:17:57;;;;;;;;;;;17.20;99.90;;;;;;5094015;28;19916;-88
2021/06/29 05:20:23;;;;;;;;;;;17.30;99.90;;;;;;5094315;28;20282;-88
2021/06/29 05:22:48;;;;;;;;;;;17.20;99.90;;;;;;5102502;28;19916;-88
2021/06/29 05:25:14;;;;;;;;;;;17.20;99.90;;;;;;5106845;28;19916;-87
2021/06/29 05:27:41;;;;;;;;;;;17.30;99.90;;;;;;5095020;28;19915;-87
2021/06/29 05:30:08;;;;;;;;;;;17.30;99.90;;;;;;5117309;27;19919;-88
2021/06/29 05:32:33;;;;;;;;;;;17.40;99.90;;;;;;5113599;28;19919;-88
2021/06/29 05:34:59;;;;;;;;;;;17.30;99.90;;;;;;5113571;28;19949;-88
2021/06/29 05:37:25;;;;;;;;;;;17.30;99.90;;;;;;5114206;28;19961;-88
2021/06/29 05:39:51;;;;;;;;;;;17.40;99.90;;;;;;5096521;28;19919;-88
2021/06/29 05:42:16;;;;;;;;;;;17.40;99.90;;;;;;5093969;28;19920;-88
2021/06/29 05:44:43;;;;;;;;;;;17.40;99.90;;;;;;5096483;28;19923;-88
2021/06/29 05:47:09;;;;;;;;;;;17.40;99.90;;;;;;5096669;28;19915;-87
2021/06/29 05:49:35;;;;;;;;;;;17.40;99.90;;;;;;5113039;28;19923;-88
2021/06/29 05:52:02;;;;;;;;;;;17.40;99.90;;;;;;5113113;28;20426;-88
2021/06/29 05:54:29;;;;;;;;;;;17.40;99.90;;;;;;5114098;28;19920;-88
2021/06/29 05:56:55;;;;;;;;;;;17.40;99.90;;;;;;5113457;28;19972;-87
2021/06/29 05:59:20;;;;;;;;;;;17.40;99.90;;;;;;5096639;28;19924;-88
2021/06/29 06:01:46;;;;;;;;;;;17.40;99.90;;;;;;5113368;28;20328;-88
2021/06/29 06:04:12;;;;;;;;;;;17.40;99.90;;;;;;5113126;28;19915;-88
2021/06/29 06:06:38;;;;;;;;;;;17.40;99.90;;;;;;5130013;27;19916;-88
2021/06/29 06:09:03;;;;;;;;;;;17.40;99.90;;;;;;5096599;28;19916;-88
2021/06/29 06:11:29;;;;;;;;;;;17.30;99.90;;;;;;5112627;28;19920;-88
2021/06/29 06:13:55;;;;;;;;;;;17.30;99.90;;;;;;5112927;27;19927;-87
2021/06/29 06:16:21;;;;;;;;;;;17.30;99.90;;;;;;5103199;28;20575;-88
2021/06/29 06:18:47;;;;;;;;;;;17.30;99.90;;;;;;5112706;28;20397;-87
2021/06/29 06:21:12;;;;;;;;;;;17.30;99.90;;;;;;5094995;28;19937;-88
2021/06/29 06:23:41;;;;;;;;;;;17.30;99.90;;;;;;5108976;28;19920;-87
2021/06/29 06:26:07;;;;;;;;;;;17.30;99.90;;;;;;5077856;28;19939;-87
2021/06/29 06:28:33;;;;;;;;;;;17.30;99.90;;;;;;5111276;28;19919;-85
2021/06/29 06:30:58;;;;;;;;;;;17.30;99.90;;;;;;5086188;28;19922;-85
2021/06/29 06:33:25;;;;;;;;;;;17.30;99.90;;;;;;5094528;28;19926;-85
2021/06/29 06:35:51;;;;;;;;;;;17.40;99.90;;;;;;5112199;28;19919;-85
2021/06/29 06:38:16;;;;;;;;;;;17.40;99.90;;;;;;5110948;28;20413;-85
2021/06/29 06:40:42;;;;;;;;;;;17.40;99.90;;;;;;5102918;28;19916;-85
2021/06/29 06:43:08;;;;;;;;;;;17.40;99.90;;;;;;5111697;28;19924;-85
2021/06/29 06:45:34;;;;;;;;;;;17.40;99.90;;;;;;5111073;28;19920;-85
2021/06/29 06:48:01;;;;;;;;;;;17.50;99.90;;;;;;5110133;28;20018;-85
2021/06/29 06:50:26;;;;;;;;;;;17.50;99.90;;;;;;5110483;28;20426;-85
2021/06/29 06:52:52;;;;;;;;;;;17.60;99.90;;;;;;5116979;27;19924;-85
2021/06/29 06:55:19;;;;;;;;;;;17.60;99.90;;;;;;5104063;28;19920;-84
2021/06/29 06:57:45;;;;;;;;;;;17.60;99.90;;;;;;5109251;28;20362;-85
2021/06/29 07:00:11;;;;;;;;;;;17.60;99.90;;;;;;5097158;28;19923;-87
2021/06/29 07:02:37;;;;;;;;;;;17.60;99.90;;;;;;5108044;28;19924;-86
2021/06/29 07:05:07;;;;;;;;;;;17.60;99.90;;;;;;5110549;28;19961;-86
2021/06/29 07:07:32;;;;;;;;;;;17.60;99.90;;;;;;5084998;28;20302;-87
2021/06/29 07:09:58;;;;;;;;;;;17.70;99.90;;;;;;5110426;28;19919;-87
2021/06/29 07:12:24;;;;;;;;;;;17.70;99.90;;;;;;5092934;28;20401;-87
2021/06/29 07:14:50;;;;;;;;;;;17.70;99.90;;;;;;5112217;28;19919;-86
2021/06/29 07:17:16;;;;;;;;;;;17.80;99.90;;;;;;5111531;28;19919;-87
2021/06/29 07:19:42;;;;;;;;;;;17.80;99.90;;;;;;5109743;28;19919;-87
2021/06/29 07:22:07;;;;;;;;;;;17.80;99.90;;;;;;5079805;28;19916;-87
2021/06/29 07:24:33;;;;;;;;;;;17.90;99.90;;;;;;5108499;28;20382;-90
2021/06/29 07:26:59;;;;;;;;;;;17.80;99.90;;;;;;5110182;28;20728;-87
2021/06/29 07:29:25;;;;;;;;;;;17.90;99.90;;;;;;5091411;28;19922;-86
2021/06/29 07:31:51;;;;;;;;;;;18.00;99.90;;;;;;5073282;28;19927;-86
2021/06/29 07:34:17;;;;;;;;;;;18.00;99.90;;;;;;5099634;28;19972;-86
2021/06/29 07:36:43;;;;;;;;;;;18.00;99.90;;;;;;5092163;28;20334;-86
2021/06/29 07:39:09;;;;;;;;;;;18.00;99.90;;;;;;5101068;28;19949;-87
2021/06/29 07:41:35;;;;;;;;;;;18.00;99.90;;;;;;5109008;28;20437;-86
2021/06/29 07:44:00;;;;;;;;;;;18.00;99.90;;;;;;5109819;28;20327;-87
2021/06/29 07:46:27;;;;;;;;;;;18.00;99.90;;;;;;5109027;28;19923;-86
2021/06/29 07:48:52;;;;;;;;;;;18.10;99.90;;;;;;5109158;28;19916;-86
2021/06/29 07:51:18;;;;;;;;;;;18.10;99.90;;;;;;5108436;28;20264;-87
2021/06/29 07:53:44;;;;;;;;;;;18.10;99.90;;;;;;5107816;28;20634;-88
2021/06/29 07:56:14;;;;;;;;;;;18.10;99.90;;;;;;5091184;28;19926;-87
2021/06/29 07:58:41;;;;;;;;;;;18.10;99.90;;;;;;5121115;27;19920;-88
2021/06/29 08:01:07;;;;;;;;;;;18.10;99.90;;;;;;5092101;28;19920;-89
2021/06/29 08:03:33;;;;;;;;;;;18.10;99.90;;;;;;5118715;27;19912;-89
2021/06/29 08:05:58;;;;;;;;;;;18.10;99.90;;;;;;5109561;28;19937;-89
2021/06/29 08:08:24;;;;;;;;;;;18.10;99.90;;;;;;5092218;28;19920;-88
2021/06/29 08:10:50;;;;;;;;;;;18.20;99.90;;;;;;5108278;28;19924;-89
2021/06/29 08:13:16;;;;;;;;;;;18.10;99.90;;;;;;5091928;28;20006;-92
2021/06/29 08:15:42;;;;;;;;;;;18.20;99.90;;;;;;5084139;28;20013;-90
2021/06/29 08:18:08;;;;;;;;;;;18.10;99.90;;;;;;5107523;28;19973;-92
2021/06/29 08:20:34;;;;;;;;;;;18.20;99.90;;;;;;5090339;28;20397;-91
2021/06/29 08:22:59;;;;;;;;;;;18.10;99.90;;;;;;5111990;28;20293;-90
2021/06/29 08:25:25;;;;;;;;;;;18.10;99.90;;;;;;5107763;28;19969;-92
2021/06/29 08:27:51;;;;;;;;;;;18.00;99.90;;;;;;5104369;28;19968;-91
2021/06/29 08:30:17;;;;;;;;;;;18.00;99.90;;;;;;5088670;28;19930;-91
2021/06/29 08:32:43;;;;;;;;;;;18.00;99.90;;;;;;5093969;28;19927;-93
2021/06/29 08:35:11;;;;;;;;;;;18.00;99.90;;;;;;5096235;28;19923;-93
2021/06/29 08:40:58;;;;;;;;;;;17.90;99.90;;;;;;5116785;28;19922;-91
2021/06/29 08:43:24;;;;;;;;;;;17.90;99.90;;;;;;5116342;28;19919;-92
2021/06/29 08:45:51;;;;;;;;;;;18.00;99.90;;;;;;5113967;28;19919;-91
2021/06/29 08:48:19;;;;;;;;;;;18.00;99.90;;;;;;5097782;28;19926;-90
2021/06/29 08:50:44;;;;;;;;;;;18.00;99.90;;;;;;5100782;28;19987;-92
2021/06/29 08:53:12;;;;;;;;;;;18.10;99.90;;;;;;5111774;28;20034;-90
2021/06/29 08:55:40;;;;;;;;;;;18.10;99.90;;;;;;5113672;28;19923;-91
2021/06/29 08:58:06;;;;;;;;;;;18.10;99.90;;;;;;5104203;28;19916;-93
2021/06/29 09:00:31;;;;;;;;;;;18.00;99.90;;;;;;5121230;27;19927;-93
2021/06/29 09:02:57;;;;;;;;;;;18.10;99.90;;;;;;5112642;28;19922;-91
2021/06/29 09:05:27;;;;;;;;;;;18.00;99.90;;;;;;5095891;28;19920;-90
2021/06/29 09:08:05;;;;;;;;;;;18.00;99.90;;;;;;5108458;28;20674;-90
2021/06/29 09:10:31;;;;;;;;;;;18.00;99.90;;;;;;5112232;28;20472;-91
2021/06/29 09:12:57;;;;;;;;;;;18.00;99.90;;;;;;5107817;28;19924;-91
2021/06/29 09:15:26;;;;;;;;;;;18.00;99.90;;;;;;5084153;28;19923;-89
2021/06/29 09:17:54;;;;;;;;;;;18.00;99.90;;;;;;5112153;28;19984;-89
2021/06/29 09:20:31;;;;;;;;;;;18.10;99.90;;;;;;5117410;27;19916;-88
2021/06/29 09:22:57;;;;;;;;;;;18.00;99.90;;;;;;5108670;28;20685;-90
2021/06/29 09:25:25;;;;;;;;;;;18.00;99.90;;;;;;5095741;28;19922;-90
2021/06/29 09:27:51;;;;;;;;;;;17.90;99.90;;;;;;5113766;28;19923;-90
2021/06/29 09:30:26;;;;;;;;;;;17.90;99.90;;;;;;5113557;28;19924;-90
2021/06/29 09:32:52;;;;;;;;;;;17.90;99.90;;;;;;5111147;28;19923;-90
2021/06/29 09:35:17;;;;;;;;;;;17.90;99.90;;;;;;5092100;28;19922;-91
2021/06/29 09:37:46;;;;;;;;;;;17.90;99.90;;;;;;5130596;27;19922;-90
2021/06/29 09:40:13;;;;;;;;;;;17.80;99.90;;;;;;5096156;28;20006;-90
2021/06/29 09:42:40;;;;;;;;;;;17.80;99.90;;;;;;5113144;28;19968;-89
2021/06/29 09:45:25;;;;;;;;;;;17.80;99.90;;;;;;5088049;28;20014;-90
2021/06/29 09:47:51;;;;;;;;;;;17.70;99.90;;;;;;5093846;28;19927;-90
2021/06/29 09:50:41;;;;;;;;;;;17.70;99.90;;;;;;5092563;28;19920;-90
2021/06/29 09:53:17;;;;;;;;;;;17.70;99.90;;;;;;5087635;28;19924;-90
2021/06/29 09:55:45;;;;;;;;;;;17.70;99.90;;;;;;5090426;28;19916;-90
2021/06/29 09:58:11;;;;;;;;;;;17.70;99.90;;;;;;5113715;28;19965;-90
2021/06/29 10:01:03;;;;;;;;;;;17.60;99.90;;;;;;5112594;28;19919;-91
2021/06/29 10:03:28;;;;;;;;;;;17.60;99.90;;;;;;5107254;28;19931;-91
2021/06/29 10:05:56;;;;;;;;;;;17.60;99.90;;;;;;5109275;28;19916;-90
2021/06/29 10:08:26;;;;;;;;;;;17.60;99.90;;;;;;5120550;27;19919;-90
2021/06/29 10:11:15;;;;;;;;;;;17.60;99.90;;;;;;5113038;28;19959;-91
2021/06/29 10:13:42;;;;;;;;;;;17.50;99.90;;;;;;5117097;27;19930;-90
2021/06/29 10:16:09;;;;;;;;;;;17.50;99.90;;;;;;5127802;27;20383;-91
2021/06/29 10:18:39;;;;;;;;;;;17.60;99.90;;;;;;5094310;28;20405;-91
2021/06/29 10:21:18;;;;;;;;;;;17.50;99.90;;;;;;5116959;27;20379;-91
2021/06/29 10:23:45;;;;;;;;;;;17.50;99.90;;;;;;5111208;28;19924;-91
2021/06/29 10:26:12;;;;;;;;;;;17.50;99.90;;;;;;5113877;28;19926;-90
2021/06/29 10:28:38;;;;;;;;;;;17.50;99.90;;;;;;5113579;28;19915;-91
2021/06/29 10:31:04;;;;;;;;;;;17.50;99.90;;;;;;5112128;28;19919;-90
2021/06/29 10:33:31;;;;;;;;;;;17.50;99.90;;;;;;5112952;28;20006;-90
2021/06/29 10:35:56;;;;;;;;;;;17.50;99.90;;;;;;5111719;28;19924;-90
2021/06/29 10:38:23;;;;;;;;;;;17.50;99.90;;;;;;5123031;27;19984;-90
2021/06/29 10:40:52;;;;;;;;;;;17.50;99.90;;;;;;5095162;28;20009;-90
2021/06/29 10:43:18;;;;;;;;;;;17.50;99.90;;;;;;5111657;28;20363;-89
2021/06/29 10:45:46;;;;;;;;;;;17.40;99.90;;;;;;5126930;27;21847;-89
2021/06/29 10:48:20;;;;;;;;;;;17.40;99.90;;;;;;5077934;28;19927;-90
2021/06/29 10:50:46;;;;;;;;;;;17.30;99.90;;;;;;5109584;28;19920;-89
2021/06/29 10:53:31;;;;;;;;;;;17.20;99.90;;;;;;5112178;28;19924;-90
2021/06/29 10:55:57;;;;;;;;;;;17.20;99.90;;;;;;5104995;28;19916;-89
2021/06/29 10:58:49;;;;;;;;;;;17.20;99.90;;;;;;5094422;28;19937;-89
2021/06/29 11:01:22;;;;;;;;;;;17.20;99.90;;;;;;5109489;27;19919;-88
2021/06/29 11:03:48;;;;;;;;;;;17.20;99.90;;;;;;5108091;28;19916;-89
2021/06/29 11:06:29;;;;;;;;;;;17.20;99.90;;;;;;5078777;28;19937;-89
2021/06/29 11:08:59;;;;;;;;;;;17.20;99.90;;;;;;5090140;28;19969;-89
2021/06/29 11:11:25;;;;;;;;;;;17.20;99.90;;;;;;5083844;28;19923;-89
2021/06/29 11:13:51;;;;;;;;;;;17.20;99.90;;;;;;5091168;28;19923;-88
2021/06/29 11:16:18;;;;;;;;;;;17.30;99.90;;;;;;5109887;28;19926;-91
2021/06/29 11:18:45;;;;;;;;;;;17.30;99.90;;;;;;5112449;28;19969;-91
2021/06/29 11:21:19;;;;;;;;;;;17.30;99.90;;;;;;5112626;28;19927;-94
2021/06/29 11:23:46;;;;;;;;;;;17.40;99.90;;;;;;5110444;28;19916;-92
2021/06/29 11:26:11;;;;;;;;;;;17.40;99.90;;;;;;5110540;28;19931;-91
2021/06/29 11:28:45;;;;;;;;;;;17.40;99.90;;;;;;5111048;28;19919;-89
2021/06/29 11:31:19;;;;;;;;;;;17.40;99.90;;;;;;5110999;28;19950;-90
2021/06/29 11:34:06;;;;;;;;;;;17.40;99.90;;;;;;5128331;27;19941;-92
2021/06/29 11:36:32;;;;;;;;;;;17.40;99.90;;;;;;5115550;27;19919;-90
2021/06/29 11:38:58;;;;;;;;;;;17.40;99.90;;;;;;5110980;28;19942;-87
2021/06/29 11:41:24;;;;;;;;;;;17.40;99.90;;;;;;5113259;28;20359;-90
2021/06/29 11:43:53;;;;;;;;;;;17.40;99.90;;;;;;5113313;28;19923;-90
2021/06/29 11:46:38;;;;;;;;;;;17.40;99.90;;;;;;5084028;28;19923;-90
2021/06/29 11:49:07;;;;;;;;;;;17.40;99.90;;;;;;5110142;28;19933;-89
2021/06/29 11:51:50;;;;;;;;;;;17.40;99.90;;;;;;5092485;28;19931;-91
2021/06/29 11:54:37;;;;;;;;;;;17.30;99.90;;;;;;5110884;28;19923;-93
2021/06/29 11:57:18;;;;;;;;;;;17.40;99.90;;;;;;5118372;27;19916;-92
2021/06/29 11:59:44;;;;;;;;;;;17.30;99.90;;;;;;5094743;28;19916;-93
2021/06/29 12:02:11;;;;;;;;;;;17.30;99.90;;;;;;5086093;28;19916;-92
2021/06/29 12:04:51;;;;;;;;;;;17.40;99.90;;;;;;5107248;28;19915;-90
2021/06/29 12:07:27;;;;;;;;;;;17.40;99.90;;;;;;5110549;28;19919;-90
2021/06/29 12:09:53;;;;;;;;;;;17.40;99.90;;;;;;5110986;28;19915;-90
2021/06/29 12:12:20;;;;;;;;;;;17.40;99.90;;;;;;5110134;28;19920;-90
2021/06/29 12:14:46;;;;;;;;;;;17.40;99.90;;;;;;5093758;28;20006;-90
2021/06/29 12:17:12;;;;;;;;;;;17.30;99.90;;;;;;5077196;28;19927;-89
2021/06/29 12:19:39;;;;;;;;;;;17.30;99.90;;;;;;5110866;28;19916;-90
2021/06/29 12:22:06;;;;;;;;;;;17.30;99.90;;;;;;5110242;28;19927;-90
2021/06/29 12:24:31;;;;;;;;;;;17.40;99.90;;;;;;5111604;28;19926;-90
2021/06/29 12:26:57;;;;;;;;;;;17.40;99.90;;;;;;5111020;28;20018;-90
2021/06/29 12:29:38;;;;;;;;;;;17.40;99.90;;;;;;5094069;28;20018;-90
2021/06/29 12:32:15;;;;;;;;;;;17.40;99.90;;;;;;5110993;28;19919;-90
2021/06/29 12:38:04;;;;;;;;;;;17.40;99.90;;;;;;5111774;28;19915;-90
2021/06/29 12:40:31;;;;;;;;;;;17.40;99.90;;;;;;5110548;28;19926;-90
2021/06/29 12:42:56;;;;;;;;;;;17.40;99.90;;;;;;5093579;28;19985;-90
2021/06/29 12:45:26;;;;;;;;;;;17.40;99.90;;;;;;5111248;28;20366;-90
2021/06/29 12:48:07;;;;;;;;;;;17.40;99.90;;;;;;5128054;28;20030;-90
2021/06/29 12:50:34;;;;;;;;;;;17.30;99.90;;;;;;5110970;28;19916;-90
2021/06/29 12:53:00;;;;;;;;;;;17.40;99.90;;;;;;5111409;28;19958;-90
2021/06/29 12:55:29;;;;;;;;;;;17.40;99.90;;;;;;5112518;28;19951;-90
2021/06/29 12:58:01;;;;;;;;;;;17.40;99.90;;;;;;5111111;28;19915;-91
2021/06/29 13:00:27;;;;;;;;;;;17.40;99.90;;;;;;5127555;28;19943;-90
2021/06/29 13:02:53;;;;;;;;;;;17.40;99.90;;;;;;5111140;28;19916;-90
2021/06/29 13:05:20;;;;;;;;;;;17.40;99.90;;;;;;5111513;28;19920;-90
2021/06/29 13:07:46;;;;;;;;;;;17.30;99.90;;;;;;5115733;28;19916;-90
2021/06/29 13:10:12;;;;;;;;;;;17.30;99.90;;;;;;5094067;28;19924;-90
2021/06/29 13:12:39;;;;;;;;;;;17.30;99.90;;;;;;5094922;28;19969;-90
2021/06/29 13:15:07;;;;;;;;;;;17.30;99.90;;;;;;5094414;28;20379;-90
2021/06/29 13:17:52;;;;;;;;;;;17.30;99.90;;;;;;5111386;28;19965;-90
2021/06/29 13:20:20;;;;;;;;;;;17.30;99.90;;;;;;5093464;28;19965;-89
2021/06/29 13:26:08;;;;;;;;;;;17.40;99.90;;;;;;5110295;28;19914;-90
2021/06/29 13:28:33;;;;;;;;;;;17.30;99.90;;;;;;5097313;28;20358;-90
2021/06/29 13:34:24;;;;;;;;;;;17.20;99.90;;;;;;5115363;28;19919;-90
2021/06/29 13:36:51;;;;;;;;;;;17.20;99.90;;;;;;5114578;28;20018;-90
2021/06/29 13:39:27;;;;;;;;;;;17.20;99.90;;;;;;5114527;28;19915;-90
2021/06/29 13:41:53;;;;;;;;;;;17.20;99.90;;;;;;5114263;28;19920;-90
2021/06/29 13:44:19;;;;;;;;;;;17.20;99.90;;;;;;5113838;28;19934;-89
2021/06/29 13:46:45;;;;;;;;;;;17.20;99.90;;;;;;5131281;27;19919;-90
2021/06/29 13:49:18;;;;;;;;;;;17.20;99.90;;;;;;5114118;28;19998;-91
2021/06/29 13:51:44;;;;;;;;;;;17.20;99.90;;;;;;5113848;28;20287;-91
2021/06/29 13:54:13;;;;;;;;;;;17.20;99.90;;;;;;5113742;28;19923;-91
2021/06/29 13:56:39;;;;;;;;;;;17.10;99.90;;;;;;5114130;28;19915;-89
2021/06/29 13:59:05;;;;;;;;;;;17.20;99.90;;;;;;5113242;28;20282;-90
2021/06/29 14:01:33;;;;;;;;;;;17.20;99.90;;;;;;5129951;27;19972;-90
2021/06/29 14:04:04;;;;;;;;;;;17.20;99.90;;;;;;5113120;28;19915;-89
2021/06/29 14:06:30;;;;;;;;;;;17.20;99.90;;;;;;5096681;28;19941;-91
2021/06/29 14:09:06;;;;;;;;;;;17.20;99.90;;;;;;5122009;27;19915;-91
2021/06/29 14:11:34;;;;;;;;;;;17.10;99.90;;;;;;5108284;28;19923;-90
2021/06/29 14:14:01;;;;;;;;;;;17.00;99.90;;;;;;5113273;28;19915;-93
2021/06/29 14:16:27;;;;;;;;;;;17.00;99.90;;;;;;5096017;28;19920;-91
2021/06/29 14:18:53;;;;;;;;;;;17.00;99.90;;;;;;5106168;28;20002;-91
2021/06/29 14:21:19;;;;;;;;;;;16.90;99.90;;;;;;5123739;27;20354;-91
2021/06/29 14:23:47;;;;;;;;;;;16.90;99.90;;;;;;5104133;28;20336;-93
2021/06/29 14:26:13;;;;;;;;;;;16.90;99.90;;;;;;5111072;28;20394;-90
2021/06/29 14:28:39;;;;;;;;;;;16.90;99.90;;;;;;5114038;27;20014;-93
2021/06/29 14:31:05;;;;;;;;;;;16.90;99.90;;;;;;5112644;28;20378;-93
2021/06/29 14:33:31;;;;;;;;;;;16.80;99.90;;;;;;5112587;28;19939;-94
2021/06/29 14:35:59;;;;;;;;;;;16.80;99.90;;;;;;5112712;28;19975;-94